This is the latest recevied weather packets stored in our database for station/object JF2ZGN-13. If no packets are shown the sender has not sent any weather packets the latest 10 day(s).
| Time | Temp. | Humidity | Pressure | Rain* | Wind** | Luminosity | Snow |
|---|---|---|---|---|---|---|---|
| 1777539672 | 7.22° C | 62% | 909.1 hPa | 9.65 mm | - | - | - |
| 1777539072 | 7.22° C | 63% | 909.1 hPa | 9.65 mm | - | - | - |
| 1777538471 | 7.78° C | 62% | 909.1 hPa | 9.65 mm | - | - | - |
| 1777537871 | 7.22° C | 60% | 909.3 hPa | 9.4 mm | - | - | - |
| 1777537270 | 7.22° C | 62% | 909.3 hPa | 9.4 mm | - | - | - |
| 1777536670 | 7.78° C | 62% | 909.5 hPa | 9.14 mm | - | - | - |
| 1777536069 | 7.78° C | 62% | 909.6 hPa | 8.89 mm | - | - | - |
| 1777535469 | 7.78° C | 64% | 909.4 hPa | 8.89 mm | - | - | - |
| 1777534869 | 7.22° C | 63% | 909.4 hPa | 8.64 mm | - | - | - |
| 1777534269 | 7.22° C | 60% | 909.5 hPa | 8.13 mm | - | - | - |
| 1777533667 | 7.22° C | 60% | 909.6 hPa | 8.13 mm | - | - | - |
| 1777533067 | 7.22° C | 60% | 909.6 hPa | 7.87 mm | - | - | - |
| 1777532466 | 7.22° C | 63% | 909.6 hPa | 7.87 mm | - | - | - |
| 1777531866 | 6.67° C | 63% | 909.6 hPa | 7.87 mm | - | - | - |
| 1777531266 | 6.67° C | 62% | 909.5 hPa | 7.62 mm | - | - | - |
| 1777530665 | 6.67° C | 62% | 909.6 hPa | 7.37 mm | - | - | - |
| 1777530065 | 7.22° C | 62% | 909.7 hPa | 7.37 mm | - | - | - |
| 1777529464 | 7.22° C | 61% | 909.8 hPa | 7.11 mm | - | - | - |
| 1777528863 | 7.22° C | 61% | 910 hPa | 6.86 mm | - | - | - |
| 1777527662 | 7.22° C | 59% | 910.1 hPa | 6.1 mm | - | - | - |
| 1777527062 | 7.22° C | 60% | 910.1 hPa | 5.84 mm | - | - | - |
| 1777526462 | 7.22° C | 62% | 910.4 hPa | 5.84 mm | - | - | - |
| 1777525861 | 7.22° C | 58% | 910.4 hPa | 5.59 mm | - | - | - |
| 1777525261 | 7.22° C | 58% | 910.5 hPa | 5.59 mm | - | - | - |
| 1777524660 | 7.22° C | 58% | 910.6 hPa | 5.33 mm | - | - | - |
* Rain since midnight (hover to see other rain measurements)
** Current wind speed in m/s (hover to see current wind gust speed)